sensor_id;sensor_type;location;lat;lon;timestamp;P1;durP1;ratioP1;P2;durP2;ratioP2
8986;SDS011;4529;51.360;12.474;2022-07-15T00:00:57;4.17;;;1.10;;
8986;SDS011;4529;51.360;12.474;2022-07-15T00:06:00;2.00;;;1.10;;
8986;SDS011;4529;51.360;12.474;2022-07-15T00:11:04;1.63;;;1.00;;
8986;SDS011;4529;51.360;12.474;2022-07-15T00:21:42;0.80;;;0.80;;
8986;SDS011;4529;51.360;12.474;2022-07-15T00:26:46;1.23;;;1.00;;
8986;SDS011;4529;51.360;12.474;2022-07-15T00:31:50;1.90;;;1.00;;
8986;SDS011;4529;51.360;12.474;2022-07-15T00:36:54;1.17;;;0.87;;
8986;SDS011;4529;51.360;12.474;2022-07-15T00:41:58;1.20;;;1.10;;
8986;SDS011;4529;51.360;12.474;2022-07-15T00:47:03;2.33;;;1.00;;
8986;SDS011;4529;51.360;12.474;2022-07-15T00:52:06;1.57;;;0.97;;
8986;SDS011;4529;51.360;12.474;2022-07-15T00:57:10;2.10;;;1.20;;
8986;SDS011;4529;51.360;12.474;2022-07-15T01:02:14;1.13;;;1.03;;
8986;SDS011;4529;51.360;12.474;2022-07-15T01:07:17;2.93;;;1.10;;
8986;SDS011;4529;51.360;12.474;2022-07-15T01:12:21;1.70;;;1.27;;
8986;SDS011;4529;51.360;12.474;2022-07-15T01:17:24;1.50;;;1.17;;
8986;SDS011;4529;51.360;12.474;2022-07-15T01:22:28;3.70;;;1.20;;
8986;SDS011;4529;51.360;12.474;2022-07-15T01:27:32;3.90;;;1.40;;
8986;SDS011;4529;51.360;12.474;2022-07-15T01:32:37;2.57;;;1.00;;
8986;SDS011;4529;51.360;12.474;2022-07-15T01:37:41;3.77;;;1.20;;
8986;SDS011;4529;51.360;12.474;2022-07-15T01:42:45;1.43;;;1.10;;
8986;SDS011;4529;51.360;12.474;2022-07-15T01:47:49;1.13;;;1.03;;
8986;SDS011;4529;51.360;12.474;2022-07-15T01:52:53;1.50;;;1.40;;
8986;SDS011;4529;51.360;12.474;2022-07-15T01:57:57;2.23;;;1.27;;
8986;SDS011;4529;51.360;12.474;2022-07-15T02:03:01;1.60;;;1.50;;
8986;SDS011;4529;51.360;12.474;2022-07-15T02:08:05;4.87;;;1.43;;
8986;SDS011;4529;51.360;12.474;2022-07-15T02:13:10;4.10;;;1.43;;
8986;SDS011;4529;51.360;12.474;2022-07-15T02:18:14;2.70;;;1.50;;
8986;SDS011;4529;51.360;12.474;2022-07-15T02:23:18;1.50;;;1.40;;
8986;SDS011;4529;51.360;12.474;2022-07-15T02:28:22;2.30;;;1.40;;
8986;SDS011;4529;51.360;12.474;2022-07-15T02:33:26;4.67;;;1.27;;
8986;SDS011;4529;51.360;12.474;2022-07-15T02:38:30;2.43;;;1.57;;
8986;SDS011;4529;51.360;12.474;2022-07-15T02:43:34;2.27;;;1.27;;
8986;SDS011;4529;51.360;12.474;2022-07-15T02:48:39;3.03;;;1.47;;
8986;SDS011;4529;51.360;12.474;2022-07-15T02:53:42;1.47;;;1.30;;
8986;SDS011;4529;51.360;12.474;2022-07-15T02:58:45;3.60;;;1.70;;
8986;SDS011;4529;51.360;12.474;2022-07-15T03:03:49;1.60;;;1.50;;
8986;SDS011;4529;51.360;12.474;2022-07-15T03:08:52;2.33;;;1.60;;
8986;SDS011;4529;51.360;12.474;2022-07-15T03:13:56;2.90;;;1.60;;
8986;SDS011;4529;51.360;12.474;2022-07-15T03:18:59;3.50;;;1.70;;
8986;SDS011;4529;51.360;12.474;2022-07-15T03:24:04;2.03;;;1.63;;
8986;SDS011;4529;51.360;12.474;2022-07-15T03:29:07;3.07;;;1.50;;
8986;SDS011;4529;51.360;12.474;2022-07-15T03:34:11;4.17;;;1.97;;
8986;SDS011;4529;51.360;12.474;2022-07-15T03:39:14;4.83;;;1.63;;
8986;SDS011;4529;51.360;12.474;2022-07-15T03:44:17;3.70;;;1.67;;
8986;SDS011;4529;51.360;12.474;2022-07-15T03:49:21;4.20;;;1.87;;
8986;SDS011;4529;51.360;12.474;2022-07-15T03:54:24;3.50;;;1.80;;
8986;SDS011;4529;51.360;12.474;2022-07-15T03:59:28;3.37;;;1.90;;
8986;SDS011;4529;51.360;12.474;2022-07-15T04:04:31;2.77;;;1.70;;
8986;SDS011;4529;51.360;12.474;2022-07-15T04:09:35;3.57;;;1.77;;
8986;SDS011;4529;51.360;12.474;2022-07-15T04:14:38;3.73;;;1.60;;
8986;SDS011;4529;51.360;12.474;2022-07-15T04:19:42;2.27;;;1.40;;
8986;SDS011;4529;51.360;12.474;2022-07-15T04:24:45;2.80;;;1.50;;
8986;SDS011;4529;51.360;12.474;2022-07-15T04:29:48;4.07;;;1.67;;
8986;SDS011;4529;51.360;12.474;2022-07-15T04:34:52;2.63;;;1.70;;
8986;SDS011;4529;51.360;12.474;2022-07-15T04:39:55;1.60;;;1.50;;
8986;SDS011;4529;51.360;12.474;2022-07-15T04:44:59;3.83;;;1.70;;
8986;SDS011;4529;51.360;12.474;2022-07-15T04:50:03;2.37;;;1.50;;
8986;SDS011;4529;51.360;12.474;2022-07-15T04:55:06;4.40;;;1.53;;
8986;SDS011;4529;51.360;12.474;2022-07-15T05:00:10;4.37;;;1.50;;
8986;SDS011;4529;51.360;12.474;2022-07-15T05:05:13;5.33;;;1.60;;
8986;SDS011;4529;51.360;12.474;2022-07-15T05:10:17;2.07;;;1.60;;
8986;SDS011;4529;51.360;12.474;2022-07-15T05:15:20;3.13;;;1.40;;
8986;SDS011;4529;51.360;12.474;2022-07-15T05:20:23;2.73;;;1.50;;
8986;SDS011;4529;51.360;12.474;2022-07-15T05:25:27;2.17;;;1.50;;
8986;SDS011;4529;51.360;12.474;2022-07-15T05:30:30;2.40;;;1.60;;
8986;SDS011;4529;51.360;12.474;2022-07-15T05:35:34;1.93;;;1.50;;
8986;SDS011;4529;51.360;12.474;2022-07-15T05:40:37;4.20;;;1.40;;
8986;SDS011;4529;51.360;12.474;2022-07-15T05:45:42;3.97;;;1.60;;
8986;SDS011;4529;51.360;12.474;2022-07-15T05:50:45;3.20;;;1.60;;
8986;SDS011;4529;51.360;12.474;2022-07-15T05:55:48;2.13;;;1.63;;
8986;SDS011;4529;51.360;12.474;2022-07-15T06:00:52;4.23;;;1.63;;
8986;SDS011;4529;51.360;12.474;2022-07-15T06:05:55;3.90;;;1.70;;
8986;SDS011;4529;51.360;12.474;2022-07-15T06:10:59;3.87;;;1.70;;
8986;SDS011;4529;51.360;12.474;2022-07-15T06:16:02;3.70;;;1.70;;
8986;SDS011;4529;51.360;12.474;2022-07-15T06:21:06;1.67;;;1.30;;
8986;SDS011;4529;51.360;12.474;2022-07-15T06:26:09;3.83;;;1.60;;
8986;SDS011;4529;51.360;12.474;2022-07-15T06:31:13;5.10;;;1.60;;
8986;SDS011;4529;51.360;12.474;2022-07-15T06:36:16;2.13;;;1.37;;
8986;SDS011;4529;51.360;12.474;2022-07-15T06:41:20;2.33;;;1.50;;
8986;SDS011;4529;51.360;12.474;2022-07-15T06:46:23;4.10;;;1.67;;
8986;SDS011;4529;51.360;12.474;2022-07-15T06:51:26;4.13;;;1.33;;
8986;SDS011;4529;51.360;12.474;2022-07-15T06:56:30;3.67;;;1.40;;
8986;SDS011;4529;51.360;12.474;2022-07-15T07:01:33;2.83;;;1.40;;
8986;SDS011;4529;51.360;12.474;2022-07-15T07:06:37;3.10;;;1.27;;
8986;SDS011;4529;51.360;12.474;2022-07-15T07:11:40;4.10;;;1.63;;
8986;SDS011;4529;51.360;12.474;2022-07-15T07:16:44;2.83;;;1.40;;
8986;SDS011;4529;51.360;12.474;2022-07-15T07:21:47;4.07;;;1.30;;
8986;SDS011;4529;51.360;12.474;2022-07-15T07:26:51;3.03;;;1.20;;
8986;SDS011;4529;51.360;12.474;2022-07-15T07:31:54;1.93;;;1.30;;
8986;SDS011;4529;51.360;12.474;2022-07-15T07:36:58;5.80;;;1.70;;
8986;SDS011;4529;51.360;12.474;2022-07-15T07:42:01;3.10;;;1.30;;
8986;SDS011;4529;51.360;12.474;2022-07-15T07:47:05;2.43;;;1.20;;
8986;SDS011;4529;51.360;12.474;2022-07-15T07:52:08;3.03;;;1.50;;
8986;SDS011;4529;51.360;12.474;2022-07-15T07:57:12;1.50;;;1.10;;
8986;SDS011;4529;51.360;12.474;2022-07-15T08:02:15;1.73;;;1.10;;
8986;SDS011;4529;51.360;12.474;2022-07-15T08:07:19;2.37;;;1.10;;
8986;SDS011;4529;51.360;12.474;2022-07-15T08:12:22;1.73;;;0.90;;
8986;SDS011;4529;51.360;12.474;2022-07-15T08:17:25;3.40;;;1.17;;
8986;SDS011;4529;51.360;12.474;2022-07-15T08:22:29;1.33;;;0.90;;
8986;SDS011;4529;51.360;12.474;2022-07-15T08:27:32;2.57;;;1.07;;
8986;SDS011;4529;51.360;12.474;2022-07-15T08:32:36;1.27;;;1.07;;
8986;SDS011;4529;51.360;12.474;2022-07-15T08:37:39;1.57;;;0.90;;
8986;SDS011;4529;51.360;12.474;2022-07-15T08:42:44;1.57;;;0.90;;
8986;SDS011;4529;51.360;12.474;2022-07-15T08:47:48;5.50;;;1.00;;
8986;SDS011;4529;51.360;12.474;2022-07-15T08:52:52;1.00;;;0.90;;
8986;SDS011;4529;51.360;12.474;2022-07-15T08:57:55;1.50;;;0.83;;
8986;SDS011;4529;51.360;12.474;2022-07-15T09:02:59;2.00;;;0.90;;
8986;SDS011;4529;51.360;12.474;2022-07-15T09:08:06;1.33;;;0.80;;
8986;SDS011;4529;51.360;12.474;2022-07-15T09:13:24;1.63;;;0.80;;
8986;SDS011;4529;51.360;12.474;2022-07-15T09:18:30;1.47;;;0.70;;
8986;SDS011;4529;51.360;12.474;2022-07-15T09:23:32;1.17;;;0.90;;
8986;SDS011;4529;51.360;12.474;2022-07-15T09:28:36;0.80;;;0.80;;
8986;SDS011;4529;51.360;12.474;2022-07-15T09:33:39;4.70;;;1.37;;
8986;SDS011;4529;51.360;12.474;2022-07-15T09:38:50;2.97;;;0.90;;
8986;SDS011;4529;51.360;12.474;2022-07-15T09:49:02;1.70;;;0.73;;
8986;SDS011;4529;51.360;12.474;2022-07-15T09:54:06;1.67;;;0.93;;
8986;SDS011;4529;51.360;12.474;2022-07-15T09:59:10;2.00;;;0.80;;
8986;SDS011;4529;51.360;12.474;2022-07-15T10:04:15;1.43;;;0.97;;
8986;SDS011;4529;51.360;12.474;2022-07-15T10:09:22;2.43;;;1.20;;
8986;SDS011;4529;51.360;12.474;2022-07-15T10:14:39;2.03;;;1.20;;
8986;SDS011;4529;51.360;12.474;2022-07-15T10:20:02;3.40;;;1.17;;
8986;SDS011;4529;51.360;12.474;2022-07-15T10:25:31;2.57;;;1.07;;
8986;SDS011;4529;51.360;12.474;2022-07-15T10:36:22;2.07;;;1.20;;
8986;SDS011;4529;51.360;12.474;2022-07-15T10:41:25;2.20;;;1.10;;
8986;SDS011;4529;51.360;12.474;2022-07-15T10:46:29;2.50;;;0.90;;
8986;SDS011;4529;51.360;12.474;2022-07-15T10:56:43;0.83;;;0.70;;
8986;SDS011;4529;51.360;12.474;2022-07-15T11:01:47;1.20;;;0.83;;
8986;SDS011;4529;51.360;12.474;2022-07-15T11:12:05;1.90;;;0.90;;
8986;SDS011;4529;51.360;12.474;2022-07-15T11:17:09;4.60;;;1.10;;
8986;SDS011;4529;51.360;12.474;2022-07-15T11:22:12;1.07;;;0.93;;
8986;SDS011;4529;51.360;12.474;2022-07-15T11:27:15;1.63;;;1.03;;
8986;SDS011;4529;51.360;12.474;2022-07-15T11:32:19;1.60;;;0.97;;
8986;SDS011;4529;51.360;12.474;2022-07-15T11:37:26;1.33;;;0.90;;
8986;SDS011;4529;51.360;12.474;2022-07-15T11:42:33;1.83;;;1.07;;
8986;SDS011;4529;51.360;12.474;2022-07-15T11:47:41;2.13;;;1.03;;
8986;SDS011;4529;51.360;12.474;2022-07-15T11:52:40;2.33;;;1.40;;
8986;SDS011;4529;51.360;12.474;2022-07-15T11:57:45;2.37;;;1.20;;
8986;SDS011;4529;51.360;12.474;2022-07-15T12:02:46;1.57;;;0.87;;
8986;SDS011;4529;51.360;12.474;2022-07-15T12:07:50;2.00;;;1.10;;
8986;SDS011;4529;51.360;12.474;2022-07-15T12:12:54;1.93;;;1.10;;
8986;SDS011;4529;51.360;12.474;2022-07-15T12:17:57;1.37;;;1.03;;
8986;SDS011;4529;51.360;12.474;2022-07-15T12:23:08;1.10;;;1.00;;
8986;SDS011;4529;51.360;12.474;2022-07-15T12:28:10;1.53;;;1.10;;
8986;SDS011;4529;51.360;12.474;2022-07-15T12:33:17;2.10;;;1.10;;
8986;SDS011;4529;51.360;12.474;2022-07-15T12:38:26;2.47;;;1.00;;
8986;SDS011;4529;51.360;12.474;2022-07-15T12:43:47;2.37;;;1.20;;
8986;SDS011;4529;51.360;12.474;2022-07-15T12:48:50;1.50;;;1.20;;
8986;SDS011;4529;51.360;12.474;2022-07-15T12:54:02;1.37;;;1.00;;
8986;SDS011;4529;51.360;12.474;2022-07-15T12:58:57;2.70;;;1.00;;
8986;SDS011;4529;51.360;12.474;2022-07-15T13:04:00;1.80;;;1.10;;
8986;SDS011;4529;51.360;12.474;2022-07-15T13:09:03;1.67;;;1.10;;
8986;SDS011;4529;51.360;12.474;2022-07-15T13:14:07;2.73;;;1.20;;
8986;SDS011;4529;51.360;12.474;2022-07-15T13:19:10;1.97;;;1.30;;
8986;SDS011;4529;51.360;12.474;2022-07-15T13:24:14;2.23;;;1.30;;
8986;SDS011;4529;51.360;12.474;2022-07-15T13:29:18;1.27;;;1.07;;
8986;SDS011;4529;51.360;12.474;2022-07-15T13:34:22;1.70;;;1.00;;
8986;SDS011;4529;51.360;12.474;2022-07-15T13:39:26;1.90;;;1.40;;
8986;SDS011;4529;51.360;12.474;2022-07-15T13:44:30;1.23;;;0.90;;
8986;SDS011;4529;51.360;12.474;2022-07-15T13:49:35;4.30;;;1.20;;
8986;SDS011;4529;51.360;12.474;2022-07-15T13:54:39;1.47;;;1.10;;
8986;SDS011;4529;51.360;12.474;2022-07-15T13:59:43;3.13;;;1.20;;
8986;SDS011;4529;51.360;12.474;2022-07-15T14:04:47;2.30;;;1.23;;
8986;SDS011;4529;51.360;12.474;2022-07-15T14:09:51;2.17;;;1.40;;
8986;SDS011;4529;51.360;12.474;2022-07-15T14:14:55;4.10;;;1.40;;
8986;SDS011;4529;51.360;12.474;2022-07-15T14:19:59;3.27;;;1.30;;
8986;SDS011;4529;51.360;12.474;2022-07-15T14:25:03;1.47;;;1.20;;
8986;SDS011;4529;51.360;12.474;2022-07-15T14:30:08;3.77;;;1.30;;
8986;SDS011;4529;51.360;12.474;2022-07-15T14:35:11;2.17;;;1.20;;
8986;SDS011;4529;51.360;12.474;2022-07-15T14:40:14;1.70;;;1.17;;
8986;SDS011;4529;51.360;12.474;2022-07-15T14:45:18;1.43;;;1.30;;
8986;SDS011;4529;51.360;12.474;2022-07-15T14:50:21;1.37;;;1.10;;
8986;SDS011;4529;51.360;12.474;2022-07-15T14:55:25;1.27;;;1.17;;
8986;SDS011;4529;51.360;12.474;2022-07-15T15:00:28;1.97;;;1.57;;
8986;SDS011;4529;51.360;12.474;2022-07-15T15:05:32;2.30;;;1.30;;
8986;SDS011;4529;51.360;12.474;2022-07-15T15:10:35;2.20;;;1.37;;
8986;SDS011;4529;51.360;12.474;2022-07-15T15:15:39;1.43;;;1.30;;
8986;SDS011;4529;51.360;12.474;2022-07-15T15:20:42;2.83;;;1.33;;
8986;SDS011;4529;51.360;12.474;2022-07-15T15:25:45;2.10;;;1.47;;
8986;SDS011;4529;51.360;12.474;2022-07-15T15:30:49;2.20;;;1.30;;
8986;SDS011;4529;51.360;12.474;2022-07-15T15:35:52;2.43;;;1.20;;
8986;SDS011;4529;51.360;12.474;2022-07-15T15:40:56;1.87;;;1.27;;
8986;SDS011;4529;51.360;12.474;2022-07-15T15:46:00;3.50;;;1.40;;
8986;SDS011;4529;51.360;12.474;2022-07-15T15:51:03;2.70;;;1.30;;
8986;SDS011;4529;51.360;12.474;2022-07-15T15:56:06;1.70;;;1.40;;
8986;SDS011;4529;51.360;12.474;2022-07-15T16:01:10;1.90;;;1.60;;
8986;SDS011;4529;51.360;12.474;2022-07-15T16:06:13;1.37;;;1.17;;
8986;SDS011;4529;51.360;12.474;2022-07-15T16:11:17;2.53;;;1.43;;
8986;SDS011;4529;51.360;12.474;2022-07-15T16:16:20;1.33;;;1.23;;
8986;SDS011;4529;51.360;12.474;2022-07-15T16:21:24;1.73;;;1.33;;
8986;SDS011;4529;51.360;12.474;2022-07-15T16:26:27;4.43;;;1.43;;
8986;SDS011;4529;51.360;12.474;2022-07-15T16:31:31;3.83;;;1.60;;
8986;SDS011;4529;51.360;12.474;2022-07-15T16:36:34;1.80;;;1.70;;
8986;SDS011;4529;51.360;12.474;2022-07-15T16:41:37;1.57;;;1.47;;
8986;SDS011;4529;51.360;12.474;2022-07-15T16:46:41;1.97;;;1.47;;
8986;SDS011;4529;51.360;12.474;2022-07-15T16:51:44;2.77;;;1.60;;
8986;SDS011;4529;51.360;12.474;2022-07-15T16:56:48;2.97;;;1.50;;
8986;SDS011;4529;51.360;12.474;2022-07-15T17:01:51;1.80;;;1.40;;
8986;SDS011;4529;51.360;12.474;2022-07-15T17:06:55;4.00;;;1.93;;
8986;SDS011;4529;51.360;12.474;2022-07-15T17:11:58;5.60;;;2.20;;
8986;SDS011;4529;51.360;12.474;2022-07-15T17:17:02;1.53;;;1.43;;
8986;SDS011;4529;51.360;12.474;2022-07-15T17:22:06;6.37;;;1.37;;
8986;SDS011;4529;51.360;12.474;2022-07-15T17:27:11;1.83;;;1.40;;
8986;SDS011;4529;51.360;12.474;2022-07-15T17:32:14;2.67;;;1.50;;
8986;SDS011;4529;51.360;12.474;2022-07-15T17:37:18;1.50;;;1.40;;
8986;SDS011;4529;51.360;12.474;2022-07-15T17:42:21;2.83;;;1.53;;
8986;SDS011;4529;51.360;12.474;2022-07-15T17:47:26;2.73;;;1.40;;
8986;SDS011;4529;51.360;12.474;2022-07-15T17:52:30;1.97;;;1.50;;
8986;SDS011;4529;51.360;12.474;2022-07-15T17:57:33;6.13;;;1.93;;
8986;SDS011;4529;51.360;12.474;2022-07-15T18:02:37;5.67;;;1.80;;
8986;SDS011;4529;51.360;12.474;2022-07-15T18:07:40;8.87;;;2.40;;
8986;SDS011;4529;51.360;12.474;2022-07-15T18:12:44;1.60;;;1.40;;
8986;SDS011;4529;51.360;12.474;2022-07-15T18:17:47;1.73;;;1.40;;
8986;SDS011;4529;51.360;12.474;2022-07-15T18:22:51;4.43;;;1.40;;
8986;SDS011;4529;51.360;12.474;2022-07-15T18:27:54;3.80;;;1.50;;
8986;SDS011;4529;51.360;12.474;2022-07-15T18:32:58;2.47;;;1.37;;
8986;SDS011;4529;51.360;12.474;2022-07-15T18:38:01;2.40;;;1.50;;
8986;SDS011;4529;51.360;12.474;2022-07-15T18:43:05;2.77;;;1.70;;
8986;SDS011;4529;51.360;12.474;2022-07-15T18:48:08;2.30;;;1.50;;
8986;SDS011;4529;51.360;12.474;2022-07-15T18:53:13;2.47;;;1.50;;
8986;SDS011;4529;51.360;12.474;2022-07-15T18:58:17;2.30;;;1.70;;
8986;SDS011;4529;51.360;12.474;2022-07-15T19:03:21;3.10;;;1.67;;
8986;SDS011;4529;51.360;12.474;2022-07-15T19:08:25;1.47;;;1.30;;
8986;SDS011;4529;51.360;12.474;2022-07-15T19:13:29;2.80;;;1.73;;
8986;SDS011;4529;51.360;12.474;2022-07-15T19:18:33;1.63;;;1.50;;
8986;SDS011;4529;51.360;12.474;2022-07-15T19:23:38;2.77;;;1.57;;
8986;SDS011;4529;51.360;12.474;2022-07-15T19:28:42;2.23;;;1.90;;
8986;SDS011;4529;51.360;12.474;2022-07-15T19:33:46;3.13;;;1.67;;
8986;SDS011;4529;51.360;12.474;2022-07-15T19:38:50;4.57;;;2.17;;
8986;SDS011;4529;51.360;12.474;2022-07-15T19:43:54;6.10;;;4.00;;
8986;SDS011;4529;51.360;12.474;2022-07-15T19:48:58;4.63;;;3.10;;
8986;SDS011;4529;51.360;12.474;2022-07-15T19:54:03;3.53;;;2.60;;
8986;SDS011;4529;51.360;12.474;2022-07-15T19:59:07;3.63;;;2.80;;
8986;SDS011;4529;51.360;12.474;2022-07-15T20:04:10;3.30;;;2.30;;
8986;SDS011;4529;51.360;12.474;2022-07-15T20:09:13;2.43;;;2.23;;
8986;SDS011;4529;51.360;12.474;2022-07-15T20:14:17;2.20;;;2.00;;
8986;SDS011;4529;51.360;12.474;2022-07-15T20:19:20;3.63;;;1.60;;
8986;SDS011;4529;51.360;12.474;2022-07-15T20:24:24;2.20;;;1.40;;
8986;SDS011;4529;51.360;12.474;2022-07-15T20:29:27;3.10;;;1.40;;
8986;SDS011;4529;51.360;12.474;2022-07-15T20:34:31;3.23;;;1.30;;
8986;SDS011;4529;51.360;12.474;2022-07-15T20:39:34;3.03;;;1.37;;
8986;SDS011;4529;51.360;12.474;2022-07-15T20:44:38;4.17;;;1.40;;
8986;SDS011;4529;51.360;12.474;2022-07-15T20:49:43;5.43;;;1.20;;
8986;SDS011;4529;51.360;12.474;2022-07-15T20:54:46;3.53;;;1.30;;
8986;SDS011;4529;51.360;12.474;2022-07-15T20:59:49;1.33;;;1.20;;
8986;SDS011;4529;51.360;12.474;2022-07-15T21:04:53;2.47;;;1.20;;
8986;SDS011;4529;51.360;12.474;2022-07-15T21:09:56;2.13;;;1.20;;
8986;SDS011;4529;51.360;12.474;2022-07-15T21:15:01;4.17;;;1.30;;
8986;SDS011;4529;51.360;12.474;2022-07-15T21:20:06;8.17;;;1.23;;
8986;SDS011;4529;51.360;12.474;2022-07-15T21:25:10;1.80;;;1.00;;
8986;SDS011;4529;51.360;12.474;2022-07-15T21:30:13;2.07;;;1.10;;
8986;SDS011;4529;51.360;12.474;2022-07-15T21:35:17;7.53;;;1.10;;
8986;SDS011;4529;51.360;12.474;2022-07-15T21:40:20;2.27;;;1.23;;
8986;SDS011;4529;51.360;12.474;2022-07-15T21:45:24;1.13;;;1.00;;
8986;SDS011;4529;51.360;12.474;2022-07-15T21:50:27;1.53;;;1.20;;
8986;SDS011;4529;51.360;12.474;2022-07-15T21:55:31;3.07;;;1.03;;
8986;SDS011;4529;51.360;12.474;2022-07-15T22:00:34;5.07;;;1.30;;
8986;SDS011;4529;51.360;12.474;2022-07-15T22:05:38;1.40;;;1.30;;
8986;SDS011;4529;51.360;12.474;2022-07-15T22:10:41;1.90;;;1.20;;
8986;SDS011;4529;51.360;12.474;2022-07-15T22:15:45;1.53;;;1.43;;
8986;SDS011;4529;51.360;12.474;2022-07-15T22:20:48;1.63;;;1.20;;
8986;SDS011;4529;51.360;12.474;2022-07-15T22:25:51;4.00;;;1.30;;
8986;SDS011;4529;51.360;12.474;2022-07-15T22:30:55;1.47;;;1.30;;
8986;SDS011;4529;51.360;12.474;2022-07-15T22:35:59;1.67;;;1.23;;
8986;SDS011;4529;51.360;12.474;2022-07-15T22:41:03;1.23;;;1.00;;
8986;SDS011;4529;51.360;12.474;2022-07-15T22:46:07;3.83;;;1.50;;
8986;SDS011;4529;51.360;12.474;2022-07-15T22:51:10;2.17;;;1.33;;
8986;SDS011;4529;51.360;12.474;2022-07-15T22:56:14;2.53;;;1.40;;
8986;SDS011;4529;51.360;12.474;2022-07-15T23:01:17;3.83;;;1.30;;
8986;SDS011;4529;51.360;12.474;2022-07-15T23:06:21;3.80;;;1.20;;
8986;SDS011;4529;51.360;12.474;2022-07-15T23:11:24;1.70;;;1.40;;
8986;SDS011;4529;51.360;12.474;2022-07-15T23:16:28;1.73;;;1.40;;
8986;SDS011;4529;51.360;12.474;2022-07-15T23:21:31;1.60;;;1.40;;
8986;SDS011;4529;51.360;12.474;2022-07-15T23:26:34;3.07;;;1.40;;
8986;SDS011;4529;51.360;12.474;2022-07-15T23:31:38;1.97;;;1.30;;
8986;SDS011;4529;51.360;12.474;2022-07-15T23:36:41;2.67;;;1.23;;
8986;SDS011;4529;51.360;12.474;2022-07-15T23:41:45;2.07;;;1.33;;
8986;SDS011;4529;51.360;12.474;2022-07-15T23:46:48;2.07;;;1.40;;
8986;SDS011;4529;51.360;12.474;2022-07-15T23:51:52;1.60;;;1.47;;
8986;SDS011;4529;51.360;12.474;2022-07-15T23:56:55;4.80;;;1.80;;
